Hauptseite
METAR-TAF:

METAR-TAF

Flughäfen :

Mitiga International Airport

Tripolis, Libyen

Breite: 32-54N, Länge: 13-17E, Höhe: 11 m

Beobachtung

Neuester Wetterbericht von vor 20 Minuten, um 10:50 UTC
Wind 5 kt aus West/Nordwest
Temperatur 16°C
Luftfeuchtigkeit 55%
Luftdruck 1014 hPa
Sichtweite: 7000 m
Durchbrochene Bewölkung in der Höhe von 8000 ft

METAR: HLLM 221050Z 30005KT 7000 BKN080 16/07 Q1014

Zeit: 13:10 (11:10 UTC)

Prognose

Neuester Wetterbericht von vor 18 Stunden und 10 Minuten, um 17:00 UTC
Gültige Prognose vom 21 um 18 UTC bis 22 um 18 UTC
Wind 14 kt aus West/Südwest
Sichtweite: 8000 m
Aufgelockert bewölkt in der Höhe von 2500 ft
Aufgelockert bewölkt in der Höhe von 8000 ft
Übergehend zu
vom 22 um 14 UTC bis 22 um 16 UTC
Wind 15 kt aus Nord

TAF: HLLM 211700Z 2118/2218 24014KT 8000 SCT025 SCT080 BECMG 2214/2216 36015KT

Wetterbeobachtungen und Prognosen von mehr als 4000 Flughäfen (METAR und TAF Bericht).

Die verfügbaren Stationen werden durch gelbe und rote Markierungen auf der Karte dargestellt.

Führen Sie die Maus auf sie, um den Namen der Station zu sehen.

Darauf klicken, um die Beobachtung von Wetterbeobachtungen und Prognosen zu sehen.

Um die Karte zu ändern : klicken Sie auf den grünen Tasten mit einem schwarzen Kreuz Zum Vergrößern, auf den grünen Button mit einem Gedankenstrich zu verkleinern, oder auf die grünen Pfeile für benachbarte Karten.


METAR-TAF: